sensor_id;sensor_type;location;lat;lon;timestamp;pressure;altitude;pressure_sealevel;temperature;humidity
56420;BME280;42323;52.170;7.538;2023-02-02T00:02:00;101437.38;;;4.23;90.71
56420;BME280;42323;52.170;7.538;2023-02-02T00:04:31;101438.63;;;4.18;90.91
56420;BME280;42323;52.170;7.538;2023-02-02T00:06:58;101451.78;;;4.27;91.33
56420;BME280;42323;52.170;7.538;2023-02-02T00:09:27;101449.97;;;4.17;91.49
56420;BME280;42323;52.170;7.538;2023-02-02T00:11:54;101467.91;;;4.20;92.02
56420;BME280;42323;52.170;7.538;2023-02-02T00:14:21;101442.38;;;4.02;92.28
56420;BME280;42323;52.170;7.538;2023-02-02T00:16:52;101466.09;;;4.09;92.43
56420;BME280;42323;52.170;7.538;2023-02-02T00:19:24;101448.25;;;3.93;93.06
56420;BME280;42323;52.170;7.538;2023-02-02T00:21:55;101447.66;;;4.01;93.61
56420;BME280;42323;52.170;7.538;2023-02-02T00:24:23;101470.22;;;4.12;92.78
56420;BME280;42323;52.170;7.538;2023-02-02T00:26:54;101452.69;;;4.15;92.05
56420;BME280;42323;52.170;7.538;2023-02-02T00:29:29;101457.19;;;4.24;91.60
56420;BME280;42323;52.170;7.538;2023-02-02T00:31:56;101467.44;;;4.26;91.08
56420;BME280;42323;52.170;7.538;2023-02-02T00:34:22;101438.72;;;4.05;91.22
56420;BME280;42323;52.170;7.538;2023-02-02T00:36:49;101446.06;;;4.11;90.89
56420;BME280;42323;52.170;7.538;2023-02-02T00:39:19;101464.84;;;4.26;90.51
56420;BME280;42323;52.170;7.538;2023-02-02T00:41:46;101457.06;;;4.26;90.21
56420;BME280;42323;52.170;7.538;2023-02-02T00:44:13;101442.44;;;4.25;89.39
56420;BME280;42323;52.170;7.538;2023-02-02T00:46:58;101469.94;;;4.27;89.23
56420;BME280;42323;52.170;7.538;2023-02-02T00:49:24;101472.25;;;4.19;89.20
56420;BME280;42323;52.170;7.538;2023-02-02T00:51:51;101438.16;;;4.13;88.31
56420;BME280;42323;52.170;7.538;2023-02-02T00:54:18;101459.78;;;4.24;88.79
56420;BME280;42323;52.170;7.538;2023-02-02T00:56:44;101455.88;;;4.19;88.41
56420;BME280;42323;52.170;7.538;2023-02-02T00:59:11;101454.94;;;4.20;87.61
56420;BME280;42323;52.170;7.538;2023-02-02T01:01:37;101464.13;;;4.24;87.72
56420;BME280;42323;52.170;7.538;2023-02-02T01:04:04;101463.16;;;4.14;87.69
56420;BME280;42323;52.170;7.538;2023-02-02T01:06:30;101468.72;;;4.32;87.86
56420;BME280;42323;52.170;7.538;2023-02-02T01:08:59;101462.16;;;4.27;87.88
56420;BME280;42323;52.170;7.538;2023-02-02T01:11:26;101471.47;;;4.41;87.71
56420;BME280;42323;52.170;7.538;2023-02-02T01:13:53;101466.25;;;4.30;88.10
56420;BME280;42323;52.170;7.538;2023-02-02T01:16:19;101477.59;;;4.29;88.53
56420;BME280;42323;52.170;7.538;2023-02-02T01:18:48;101468.38;;;4.25;88.90
56420;BME280;42323;52.170;7.538;2023-02-02T01:21:15;101467.44;;;4.26;88.74
56420;BME280;42323;52.170;7.538;2023-02-02T01:23:42;101463.16;;;4.14;89.42
56420;BME280;42323;52.170;7.538;2023-02-02T01:26:10;101490.22;;;4.34;89.50
56420;BME280;42323;52.170;7.538;2023-02-02T01:28:38;101487.97;;;4.40;89.44
56420;BME280;42323;52.170;7.538;2023-02-02T01:31:12;101488.56;;;4.33;89.53
56420;BME280;42323;52.170;7.538;2023-02-02T01:33:39;101468.84;;;4.30;89.77
56420;BME280;42323;52.170;7.538;2023-02-02T01:36:10;101480.56;;;4.47;89.29
56420;BME280;42323;52.170;7.538;2023-02-02T01:38:37;101481.84;;;4.41;89.80
56420;BME280;42323;52.170;7.538;2023-02-02T01:41:04;101486.31;;;4.39;89.90
56420;BME280;42323;52.170;7.538;2023-02-02T01:46:12;101473.91;;;4.32;90.85
56420;BME280;42323;52.170;7.538;2023-02-02T01:48:41;101497.69;;;4.49;90.72
56420;BME280;42323;52.170;7.538;2023-02-02T01:51:13;101470.16;;;4.36;90.71
56420;BME280;42323;52.170;7.538;2023-02-02T01:53:40;101493.06;;;4.42;91.05
56420;BME280;42323;52.170;7.538;2023-02-02T01:56:11;101499.91;;;4.43;91.38
56420;BME280;42323;52.170;7.538;2023-02-02T01:58:41;101493.75;;;4.33;92.14
56420;BME280;42323;52.170;7.538;2023-02-02T02:01:08;101489.38;;;4.44;92.45
56420;BME280;42323;52.170;7.538;2023-02-02T02:03:36;101505.47;;;4.49;92.56
56420;BME280;42323;52.170;7.538;2023-02-02T02:06:06;101505.81;;;4.56;93.08
56420;BME280;42323;52.170;7.538;2023-02-02T02:08:45;101506.81;;;4.66;92.84
56420;BME280;42323;52.170;7.538;2023-02-02T02:11:13;101468.41;;;4.47;92.80
56420;BME280;42323;52.170;7.538;2023-02-02T02:13:40;101508.78;;;4.74;92.38
56420;BME280;42323;52.170;7.538;2023-02-02T02:16:52;101513.75;;;4.77;91.87
56420;BME280;42323;52.170;7.538;2023-02-02T02:22:04;101508.59;;;4.88;92.40
56420;BME280;42323;52.170;7.538;2023-02-02T02:39:05;101502.22;;;4.92;93.09
56420;BME280;42323;52.170;7.538;2023-02-02T02:41:51;101519.19;;;4.96;93.08
56420;BME280;42323;52.170;7.538;2023-02-02T02:44:21;101527.09;;;4.95;93.35
56420;BME280;42323;52.170;7.538;2023-02-02T02:46:48;101477.03;;;4.70;94.12
56420;BME280;42323;52.170;7.538;2023-02-02T02:49:15;101525.34;;;4.95;93.43
56420;BME280;42323;52.170;7.538;2023-02-02T02:51:49;101512.00;;;4.89;93.81
56420;BME280;42323;52.170;7.538;2023-02-02T02:59:56;101502.44;;;4.67;94.85
56420;BME280;42323;52.170;7.538;2023-02-02T03:02:32;101525.78;;;4.78;95.83
56420;BME280;42323;52.170;7.538;2023-02-02T03:08:00;101511.84;;;4.79;95.62
56420;BME280;42323;52.170;7.538;2023-02-02T03:10:30;101520.28;;;4.94;96.11
56420;BME280;42323;52.170;7.538;2023-02-02T03:12:57;101509.88;;;4.94;95.31
56420;BME280;42323;52.170;7.538;2023-02-02T03:15:23;101500.81;;;4.88;95.59
56420;BME280;42323;52.170;7.538;2023-02-02T03:17:52;101505.75;;;4.91;95.30
56420;BME280;42323;52.170;7.538;2023-02-02T03:20:19;101508.09;;;4.94;94.91
56420;BME280;42323;52.170;7.538;2023-02-02T03:22:45;101510.94;;;5.02;95.41
56420;BME280;42323;52.170;7.538;2023-02-02T03:25:12;101504.47;;;4.97;95.85
56420;BME280;42323;52.170;7.538;2023-02-02T03:27:38;101514.13;;;5.06;95.69
56420;BME280;42323;52.170;7.538;2023-02-02T03:30:10;101522.75;;;5.07;95.30
56420;BME280;42323;52.170;7.538;2023-02-02T03:32:37;101522.97;;;5.03;96.07
56420;BME280;42323;52.170;7.538;2023-02-02T03:35:04;101505.03;;;5.00;95.76
56420;BME280;42323;52.170;7.538;2023-02-02T03:37:31;101503.38;;;4.99;95.83
56420;BME280;42323;52.170;7.538;2023-02-02T03:39:57;101511.78;;;5.03;96.09
56420;BME280;42323;52.170;7.538;2023-02-02T03:42:24;101511.31;;;4.98;96.32
56420;BME280;42323;52.170;7.538;2023-02-02T03:44:50;101525.09;;;4.98;97.19
56420;BME280;42323;52.170;7.538;2023-02-02T03:47:17;101516.94;;;4.92;97.05
56420;BME280;42323;52.170;7.538;2023-02-02T03:49:43;101530.53;;;4.95;98.13
56420;BME280;42323;52.170;7.538;2023-02-02T03:52:09;101490.41;;;4.77;97.77
56420;BME280;42323;52.170;7.538;2023-02-02T03:54:36;101515.06;;;4.83;98.52
56420;BME280;42323;52.170;7.538;2023-02-02T03:57:02;101521.22;;;4.93;98.66
56420;BME280;42323;52.170;7.538;2023-02-02T03:59:29;101504.66;;;4.83;98.78
56420;BME280;42323;52.170;7.538;2023-02-02T04:01:55;101516.00;;;4.82;99.68
56420;BME280;42323;52.170;7.538;2023-02-02T04:04:22;101520.97;;;4.85;99.93
56420;BME280;42323;52.170;7.538;2023-02-02T04:06:48;101528.06;;;4.94;100.00
56420;BME280;42323;52.170;7.538;2023-02-02T04:09:15;101530.31;;;4.98;100.00
56420;BME280;42323;52.170;7.538;2023-02-02T04:11:41;101475.41;;;4.69;99.94
56420;BME280;42323;52.170;7.538;2023-02-02T04:14:09;101518.00;;;5.00;100.00
56420;BME280;42323;52.170;7.538;2023-02-02T04:16:35;101502.19;;;4.81;100.00
56420;BME280;42323;52.170;7.538;2023-02-02T04:19:03;101520.84;;;4.86;100.00
56420;BME280;42323;52.170;7.538;2023-02-02T04:21:30;101517.78;;;4.81;100.00
56420;BME280;42323;52.170;7.538;2023-02-02T04:23:56;101507.75;;;4.76;100.00
56420;BME280;42323;52.170;7.538;2023-02-02T04:26:23;101534.44;;;4.90;100.00
56420;BME280;42323;52.170;7.538;2023-02-02T04:28:54;101530.75;;;4.81;100.00
56420;BME280;42323;52.170;7.538;2023-02-02T04:31:20;101520.97;;;4.85;100.00
56420;BME280;42323;52.170;7.538;2023-02-02T04:33:47;101529.47;;;4.87;100.00
56420;BME280;42323;52.170;7.538;2023-02-02T04:36:13;101527.72;;;4.98;100.00
56420;BME280;42323;52.170;7.538;2023-02-02T04:38:40;101508.09;;;4.83;100.00
56420;BME280;42323;52.170;7.538;2023-02-02T04:41:08;101539.63;;;4.90;100.00
56420;BME280;42323;52.170;7.538;2023-02-02T04:43:36;101532.19;;;4.85;100.00
56420;BME280;42323;52.170;7.538;2023-02-02T04:46:03;101539.63;;;4.90;100.00
56420;BME280;42323;52.170;7.538;2023-02-02T04:48:30;101531.09;;;4.76;100.00
56420;BME280;42323;52.170;7.538;2023-02-02T04:51:00;101536.16;;;4.78;100.00
56420;BME280;42323;52.170;7.538;2023-02-02T04:53:28;101544.34;;;4.85;100.00
56420;BME280;42323;52.170;7.538;2023-02-02T04:55:55;101520.50;;;4.80;100.00
56420;BME280;42323;52.170;7.538;2023-02-02T04:58:22;101520.59;;;4.78;100.00
56420;BME280;42323;52.170;7.538;2023-02-02T05:00:48;101526.63;;;4.78;100.00
56420;BME280;42323;52.170;7.538;2023-02-02T05:03:15;101514.72;;;4.76;100.00
56420;BME280;42323;52.170;7.538;2023-02-02T05:05:41;101532.88;;;4.76;100.00
56420;BME280;42323;52.170;7.538;2023-02-02T05:08:08;101516.56;;;4.63;100.00
56420;BME280;42323;52.170;7.538;2023-02-02T05:10:39;101530.03;;;4.68;100.00
56420;BME280;42323;52.170;7.538;2023-02-02T05:13:08;101533.31;;;4.70;100.00
56420;BME280;42323;52.170;7.538;2023-02-02T05:15:34;101551.28;;;4.73;100.00
56420;BME280;42323;52.170;7.538;2023-02-02T05:18:01;101527.41;;;4.57;100.00
56420;BME280;42323;52.170;7.538;2023-02-02T05:20:27;101533.53;;;4.56;100.00
56420;BME280;42323;52.170;7.538;2023-02-02T05:22:54;101534.84;;;4.50;100.00
56420;BME280;42323;52.170;7.538;2023-02-02T05:25:20;101538.03;;;4.53;100.00
56420;BME280;42323;52.170;7.538;2023-02-02T05:27:46;101542.28;;;4.55;100.00
56420;BME280;42323;52.170;7.538;2023-02-02T05:30:13;101547.72;;;4.63;100.00
56420;BME280;42323;52.170;7.538;2023-02-02T05:32:40;101548.28;;;4.55;100.00
56420;BME280;42323;52.170;7.538;2023-02-02T05:35:07;101549.72;;;4.59;100.00
56420;BME280;42323;52.170;7.538;2023-02-02T05:37:34;101560.19;;;4.58;100.00
56420;BME280;42323;52.170;7.538;2023-02-02T05:40:01;101564.81;;;4.54;100.00
56420;BME280;42323;52.170;7.538;2023-02-02T05:42:28;101566.06;;;4.48;100.00
56420;BME280;42323;52.170;7.538;2023-02-02T05:44:54;101541.28;;;4.33;100.00
56420;BME280;42323;52.170;7.538;2023-02-02T05:47:21;101556.97;;;4.43;100.00
56420;BME280;42323;52.170;7.538;2023-02-02T05:49:48;101555.88;;;4.34;100.00
56420;BME280;42323;52.170;7.538;2023-02-02T05:52:17;101554.44;;;4.30;100.00
56420;BME280;42323;52.170;7.538;2023-02-02T05:54:44;101550.63;;;4.23;100.00
56420;BME280;42323;52.170;7.538;2023-02-02T05:57:11;101555.13;;;4.21;100.00
56420;BME280;42323;52.170;7.538;2023-02-02T05:59:37;101561.00;;;4.23;100.00
56420;BME280;42323;52.170;7.538;2023-02-02T06:02:04;101545.22;;;4.15;100.00
56420;BME280;42323;52.170;7.538;2023-02-02T06:04:30;101561.97;;;4.22;100.00
56420;BME280;42323;52.170;7.538;2023-02-02T06:06:57;101549.88;;;4.10;100.00
56420;BME280;42323;52.170;7.538;2023-02-02T06:09:23;101537.09;;;3.95;100.00
56420;BME280;42323;52.170;7.538;2023-02-02T06:11:50;101584.59;;;4.20;100.00
56420;BME280;42323;52.170;7.538;2023-02-02T06:14:16;101570.19;;;4.16;100.00
56420;BME280;42323;52.170;7.538;2023-02-02T06:16:43;101569.94;;;4.08;100.00
56420;BME280;42323;52.170;7.538;2023-02-02T06:19:09;101551.28;;;4.02;100.00
56420;BME280;42323;52.170;7.538;2023-02-02T06:21:36;101569.09;;;4.07;100.00
56420;BME280;42323;52.170;7.538;2023-02-02T06:24:02;101561.53;;;4.04;100.00
56420;BME280;42323;52.170;7.538;2023-02-02T06:26:29;101552.53;;;3.97;100.00
56420;BME280;42323;52.170;7.538;2023-02-02T06:28:56;101587.41;;;4.17;100.00
56420;BME280;42323;52.170;7.538;2023-02-02T06:31:22;101549.44;;;3.92;100.00
56420;BME280;42323;52.170;7.538;2023-02-02T06:33:54;101574.13;;;3.97;100.00
56420;BME280;42323;52.170;7.538;2023-02-02T06:36:23;101581.03;;;3.97;100.00
56420;BME280;42323;52.170;7.538;2023-02-02T06:38:54;101602.81;;;4.07;100.00
56420;BME280;42323;52.170;7.538;2023-02-02T06:41:21;101602.91;;;4.06;100.00
56420;BME280;42323;52.170;7.538;2023-02-02T06:43:48;101603.84;;;4.05;100.00
56420;BME280;42323;52.170;7.538;2023-02-02T06:46:15;101589.16;;;3.92;100.00
56420;BME280;42323;52.170;7.538;2023-02-02T06:48:42;101599.72;;;4.02;100.00
56420;BME280;42323;52.170;7.538;2023-02-02T06:51:09;101611.28;;;4.09;100.00
56420;BME280;42323;52.170;7.538;2023-02-02T06:53:35;101594.00;;;3.97;100.00
56420;BME280;42323;52.170;7.538;2023-02-02T06:56:03;101618.75;;;4.14;100.00
56420;BME280;42323;52.170;7.538;2023-02-02T06:58:31;101568.97;;;3.85;100.00
56420;BME280;42323;52.170;7.538;2023-02-02T07:01:09;101613.19;;;4.07;100.00
56420;BME280;42323;52.170;7.538;2023-02-02T07:03:36;101623.22;;;4.12;100.00
56420;BME280;42323;52.170;7.538;2023-02-02T07:06:11;101587.72;;;3.88;100.00
56420;BME280;42323;52.170;7.538;2023-02-02T07:08:37;101593.44;;;3.93;100.00
56420;BME280;42323;52.170;7.538;2023-02-02T07:11:04;101600.13;;;3.96;100.00
56420;BME280;42323;52.170;7.538;2023-02-02T07:13:42;101618.56;;;4.04;100.00
56420;BME280;42323;52.170;7.538;2023-02-02T07:16:09;101616.44;;;3.98;100.00
56420;BME280;42323;52.170;7.538;2023-02-02T07:18:35;101600.78;;;3.87;100.00
56420;BME280;42323;52.170;7.538;2023-02-02T07:21:02;101614.16;;;3.93;100.00
56420;BME280;42323;52.170;7.538;2023-02-02T07:23:29;101621.72;;;3.96;100.00
56420;BME280;42323;52.170;7.538;2023-02-02T07:26:07;101625.97;;;3.97;100.00
56420;BME280;42323;52.170;7.538;2023-02-02T07:28:34;101631.88;;;3.99;100.00
56420;BME280;42323;52.170;7.538;2023-02-02T07:31:11;101633.22;;;3.92;100.00
56420;BME280;42323;52.170;7.538;2023-02-02T07:33:40;101639.16;;;3.94;100.00
56420;BME280;42323;52.170;7.538;2023-02-02T07:36:07;101622.88;;;3.80;100.00
56420;BME280;42323;52.170;7.538;2023-02-02T07:38:33;101644.41;;;3.93;100.00
56420;BME280;42323;52.170;7.538;2023-02-02T07:41:00;101619.72;;;3.76;100.00
56420;BME280;42323;52.170;7.538;2023-02-02T07:43:27;101627.75;;;3.84;100.00
56420;BME280;42323;52.170;7.538;2023-02-02T07:45:53;101637.19;;;3.85;100.00
56420;BME280;42323;52.170;7.538;2023-02-02T07:48:20;101660.72;;;3.95;100.00
56420;BME280;42323;52.170;7.538;2023-02-02T07:50:47;101640.13;;;3.81;100.00
56420;BME280;42323;52.170;7.538;2023-02-02T07:53:13;101655.97;;;3.89;100.00
56420;BME280;42323;52.170;7.538;2023-02-02T07:55:39;101655.22;;;3.87;100.00
56420;BME280;42323;52.170;7.538;2023-02-02T07:58:06;101661.75;;;3.92;100.00
56420;BME280;42323;52.170;7.538;2023-02-02T08:00:35;101658.03;;;3.84;100.00
56420;BME280;42323;52.170;7.538;2023-02-02T08:03:01;101663.84;;;3.87;100.00
56420;BME280;42323;52.170;7.538;2023-02-02T08:05:28;101643.03;;;3.76;100.00
56420;BME280;42323;52.170;7.538;2023-02-02T08:07:54;101663.75;;;3.89;100.00
56420;BME280;42323;52.170;7.538;2023-02-02T08:10:21;101668.31;;;3.85;100.00
56420;BME280;42323;52.170;7.538;2023-02-02T08:12:47;101651.94;;;3.85;100.00
56420;BME280;42323;52.170;7.538;2023-02-02T08:15:14;101666.03;;;3.81;100.00
56420;BME280;42323;52.170;7.538;2023-02-02T08:17:43;101635.03;;;3.66;100.00
56420;BME280;42323;52.170;7.538;2023-02-02T08:20:11;101684.66;;;3.98;100.00
56420;BME280;42323;52.170;7.538;2023-02-02T08:22:38;101658.03;;;3.84;100.00
56420;BME280;42323;52.170;7.538;2023-02-02T08:25:05;101678.03;;;3.94;100.00
56420;BME280;42323;52.170;7.538;2023-02-02T08:27:32;101669.84;;;3.88;100.00
56420;BME280;42323;52.170;7.538;2023-02-02T08:29:58;101698.34;;;4.00;100.00
56420;BME280;42323;52.170;7.538;2023-02-02T08:35:52;101659.00;;;3.70;100.00
56420;BME280;42323;52.170;7.538;2023-02-02T09:47:32;101788.72;;;4.43;100.00
56420;BME280;42323;52.170;7.538;2023-02-02T10:07:07;101823.06;;;4.47;100.00
56420;BME280;42323;52.170;7.538;2023-02-02T10:47:29;101848.94;;;4.85;100.00
56420;BME280;42323;52.170;7.538;2023-02-02T11:10:24;101848.16;;;4.96;100.00
56420;BME280;42323;52.170;7.538;2023-02-02T11:14:02;101854.41;;;4.93;100.00
56420;BME280;42323;52.170;7.538;2023-02-02T11:20:58;101862.03;;;4.84;100.00
56420;BME280;42323;52.170;7.538;2023-02-02T11:23:53;101863.91;;;4.82;100.00
56420;BME280;42323;52.170;7.538;2023-02-02T11:27:22;101863.78;;;4.83;100.00
56420;BME280;42323;52.170;7.538;2023-02-02T11:30:20;101857.44;;;4.87;100.00
56420;BME280;42323;52.170;7.538;2023-02-02T11:33:33;101860.97;;;4.86;100.00
56420;BME280;42323;52.170;7.538;2023-02-02T12:00:47;101867.63;;;4.90;100.00
56420;BME280;42323;52.170;7.538;2023-02-02T12:03:33;101868.34;;;4.92;100.00
56420;BME280;42323;52.170;7.538;2023-02-02T12:06:00;101866.06;;;4.88;100.00
56420;BME280;42323;52.170;7.538;2023-02-02T12:08:29;101873.00;;;4.87;100.00
56420;BME280;42323;52.170;7.538;2023-02-02T12:11:02;101868.06;;;4.84;100.00
56420;BME280;42323;52.170;7.538;2023-02-02T12:17:46;101868.47;;;4.78;100.00
56420;BME280;42323;52.170;7.538;2023-02-02T12:30:17;101868.88;;;4.85;100.00
56420;BME280;42323;52.170;7.538;2023-02-02T13:00:27;101863.28;;;4.78;100.00
56420;BME280;42323;52.170;7.538;2023-02-02T13:17:14;101867.81;;;4.87;100.00
56420;BME280;42323;52.170;7.538;2023-02-02T13:19:57;101865.56;;;4.83;100.00
56420;BME280;42323;52.170;7.538;2023-02-02T13:26:10;101867.00;;;4.87;100.00
56420;BME280;42323;52.170;7.538;2023-02-02T13:45:00;101865.66;;;4.81;100.00
56420;BME280;42323;52.170;7.538;2023-02-02T14:51:20;101888.75;;;4.73;100.00
56420;BME280;42323;52.170;7.538;2023-02-02T14:57:23;101879.81;;;4.77;100.00
56420;BME280;42323;52.170;7.538;2023-02-02T15:00:20;101888.28;;;4.79;100.00
56420;BME280;42323;52.170;7.538;2023-02-02T15:02:48;101897.53;;;4.83;100.00
56420;BME280;42323;52.170;7.538;2023-02-02T15:29:33;101908.00;;;4.94;100.00
56420;BME280;42323;52.170;7.538;2023-02-02T15:35:23;101908.97;;;4.93;100.00
56420;BME280;42323;52.170;7.538;2023-02-02T15:38:14;101917.56;;;4.94;100.00
56420;BME280;42323;52.170;7.538;2023-02-02T15:41:32;101914.25;;;4.92;100.00
56420;BME280;42323;52.170;7.538;2023-02-02T15:47:08;101907.31;;;4.92;100.00
56420;BME280;42323;52.170;7.538;2023-02-02T15:53:18;101909.78;;;4.94;100.00
56420;BME280;42323;52.170;7.538;2023-02-02T15:55:46;101900.94;;;4.96;100.00
56420;BME280;42323;52.170;7.538;2023-02-02T16:00:53;101905.22;;;4.97;100.00
56420;BME280;42323;52.170;7.538;2023-02-02T16:03:25;101916.31;;;4.99;100.00
56420;BME280;42323;52.170;7.538;2023-02-02T16:05:55;101920.56;;;5.00;100.00
56420;BME280;42323;52.170;7.538;2023-02-02T16:08:25;101917.63;;;5.05;100.00
56420;BME280;42323;52.170;7.538;2023-02-02T17:34:32;101961.28;;;6.44;100.00
56420;BME280;42323;52.170;7.538;2023-02-02T17:37:05;101929.28;;;6.19;100.00
56420;BME280;42323;52.170;7.538;2023-02-02T17:42:41;101958.31;;;6.37;100.00
56420;BME280;42323;52.170;7.538;2023-02-02T17:45:42;101957.59;;;6.46;100.00
56420;BME280;42323;52.170;7.538;2023-02-02T17:51:47;101954.16;;;6.46;100.00
56420;BME280;42323;52.170;7.538;2023-02-02T17:54:29;101957.50;;;6.48;100.00
56420;BME280;42323;52.170;7.538;2023-02-02T17:57:18;101956.56;;;6.49;100.00
56420;BME280;42323;52.170;7.538;2023-02-02T18:00:08;101955.81;;;6.47;100.00
56420;BME280;42323;52.170;7.538;2023-02-02T18:02:56;101952.41;;;6.46;100.00
56420;BME280;42323;52.170;7.538;2023-02-02T18:05:53;101949.69;;;6.48;100.00
56420;BME280;42323;52.170;7.538;2023-02-02T18:08:35;101946.97;;;6.49;100.00
56420;BME280;42323;52.170;7.538;2023-02-02T18:11:34;101946.00;;;6.50;100.00
56420;BME280;42323;52.170;7.538;2023-02-02T18:14:02;101953.81;;;6.50;100.00
56420;BME280;42323;52.170;7.538;2023-02-02T18:19:24;101946.75;;;6.52;100.00
56420;BME280;42323;52.170;7.538;2023-02-02T18:22:12;101946.47;;;6.56;100.00
56420;BME280;42323;52.170;7.538;2023-02-02T18:25:22;101947.56;;;6.53;100.00
56420;BME280;42323;52.170;7.538;2023-02-02T18:27:51;101940.34;;;6.57;100.00
56420;BME280;42323;52.170;7.538;2023-02-02T18:30:40;101946.38;;;6.57;100.00
56420;BME280;42323;52.170;7.538;2023-02-02T18:33:21;101937.63;;;6.58;100.00
56420;BME280;42323;52.170;7.538;2023-02-02T18:35:57;101948.38;;;6.53;100.00
56420;BME280;42323;52.170;7.538;2023-02-02T18:38:29;101938.66;;;6.56;100.00
56420;BME280;42323;52.170;7.538;2023-02-02T18:40:58;101937.50;;;6.60;100.00
56420;BME280;42323;52.170;7.538;2023-02-02T18:43:35;101934.28;;;6.56;100.00
56420;BME280;42323;52.170;7.538;2023-02-02T18:46:05;101942.00;;;6.58;100.00
56420;BME280;42323;52.170;7.538;2023-02-02T18:48:40;101947.09;;;6.59;100.00
56420;BME280;42323;52.170;7.538;2023-02-02T18:51:13;101949.81;;;6.58;100.00
56420;BME280;42323;52.170;7.538;2023-02-02T18:53:44;101946.25;;;6.59;100.00
56420;BME280;42323;52.170;7.538;2023-02-02T18:56:21;101949.34;;;6.64;100.00
56420;BME280;42323;52.170;7.538;2023-02-02T18:59:01;101949.34;;;6.64;100.00
56420;BME280;42323;52.170;7.538;2023-02-02T19:01:28;101952.91;;;6.74;100.00
56420;BME280;42323;52.170;7.538;2023-02-02T19:03:55;101952.91;;;6.74;100.00
56420;BME280;42323;52.170;7.538;2023-02-02T19:06:22;101951.47;;;6.81;100.00
56420;BME280;42323;52.170;7.538;2023-02-02T19:09:07;101952.88;;;6.85;100.00
56420;BME280;42323;52.170;7.538;2023-02-02T19:11:38;101951.00;;;6.87;100.00
56420;BME280;42323;52.170;7.538;2023-02-02T19:14:23;101954.06;;;6.81;100.00
56420;BME280;42323;52.170;7.538;2023-02-02T19:16:53;101952.19;;;6.83;100.00
56420;BME280;42323;52.170;7.538;2023-02-02T19:19:25;101949.59;;;6.83;100.00
56420;BME280;42323;52.170;7.538;2023-02-02T19:21:53;101952.78;;;6.87;100.00
56420;BME280;42323;52.170;7.538;2023-02-02T19:24:20;101948.16;;;6.90;100.00
56420;BME280;42323;52.170;7.538;2023-02-02T19:26:47;101962.13;;;6.89;100.00
56420;BME280;42323;52.170;7.538;2023-02-02T19:29:19;101957.63;;;6.91;100.00
56420;BME280;42323;52.170;7.538;2023-02-02T19:31:49;101950.66;;;6.92;100.00
56420;BME280;42323;52.170;7.538;2023-02-02T19:34:17;101945.91;;;6.86;100.00
56420;BME280;42323;52.170;7.538;2023-02-02T19:36:44;101952.44;;;6.91;100.00
56420;BME280;42323;52.170;7.538;2023-02-02T19:39:16;101957.88;;;6.88;100.00
56420;BME280;42323;52.170;7.538;2023-02-02T19:41:43;101965.94;;;6.96;100.00
56420;BME280;42323;52.170;7.538;2023-02-02T19:44:10;101958.94;;;6.97;100.00
56420;BME280;42323;52.170;7.538;2023-02-02T19:46:43;101949.94;;;7.01;100.00
56420;BME280;42323;52.170;7.538;2023-02-02T19:49:12;101959.75;;;6.97;100.00
56420;BME280;42323;52.170;7.538;2023-02-02T19:51:41;101956.31;;;6.97;100.00
56420;BME280;42323;52.170;7.538;2023-02-02T19:54:24;101947.91;;;6.93;100.00
56420;BME280;42323;52.170;7.538;2023-02-02T19:56:52;101950.66;;;6.92;100.00
56420;BME280;42323;52.170;7.538;2023-02-02T19:59:20;101948.41;;;6.87;100.00
56420;BME280;42323;52.170;7.538;2023-02-02T20:01:47;101952.44;;;6.91;100.00
56420;BME280;42323;52.170;7.538;2023-02-02T20:04:16;101955.03;;;6.91;100.00
56420;BME280;42323;52.170;7.538;2023-02-02T20:06:42;101950.88;;;6.89;100.00
56420;BME280;42323;52.170;7.538;2023-02-02T20:09:25;101954.78;;;6.94;100.00
56420;BME280;42323;52.170;7.538;2023-02-02T20:11:54;101955.13;;;6.90;100.00
56420;BME280;42323;52.170;7.538;2023-02-02T20:14:26;101963.09;;;6.88;100.00
56420;BME280;42323;52.170;7.538;2023-02-02T20:17:05;101954.09;;;6.92;100.00
56420;BME280;42323;52.170;7.538;2023-02-02T20:19:33;101954.19;;;6.91;100.00
56420;BME280;42323;52.170;7.538;2023-02-02T20:22:01;101949.81;;;6.91;100.00
56420;BME280;42323;52.170;7.538;2023-02-02T20:26:56;101948.75;;;6.94;100.00
56420;BME280;42323;52.170;7.538;2023-02-02T20:29:24;101945.78;;;6.98;100.00
56420;BME280;42323;52.170;7.538;2023-02-02T20:31:53;101944.13;;;6.97;100.00
56420;BME280;42323;52.170;7.538;2023-02-02T20:36:46;101945.78;;;6.98;100.00
56420;BME280;42323;52.170;7.538;2023-02-02T20:39:48;101944.25;;;6.96;100.00
56420;BME280;42323;52.170;7.538;2023-02-02T20:42:06;101926.94;;;6.95;100.00
56420;BME280;42323;52.170;7.538;2023-02-02T20:44:33;101937.50;;;6.93;100.00
56420;BME280;42323;52.170;7.538;2023-02-02T20:46:59;101945.78;;;6.98;100.00
56420;BME280;42323;52.170;7.538;2023-02-02T20:49:27;101941.06;;;6.92;100.00
56420;BME280;42323;52.170;7.538;2023-02-02T20:51:54;101946.03;;;6.95;100.00
56420;BME280;42323;52.170;7.538;2023-02-02T20:54:22;101947.78;;;6.95;100.00
56420;BME280;42323;52.170;7.538;2023-02-02T20:56:48;101947.31;;;6.90;100.00
56420;BME280;42323;52.170;7.538;2023-02-02T20:59:15;101949.56;;;6.94;100.00
56420;BME280;42323;52.170;7.538;2023-02-02T21:01:41;101957.16;;;6.97;100.00
56420;BME280;42323;52.170;7.538;2023-02-02T21:04:07;101958.81;;;6.98;100.00
56420;BME280;42323;52.170;7.538;2023-02-02T21:06:34;101958.94;;;6.97;100.00
56420;BME280;42323;52.170;7.538;2023-02-02T21:09:01;101955.00;;;7.02;100.00
56420;BME280;42323;52.170;7.538;2023-02-02T21:11:28;101957.03;;;6.99;100.00
56420;BME280;42323;52.170;7.538;2023-02-02T21:13:54;101961.66;;;6.95;100.00
56420;BME280;42323;52.170;7.538;2023-02-02T21:16:22;101969.94;;;7.00;100.00